Primrose, Iowa
Current Conditions -  °F | °C
As of 8:35 AM on Monday 26 Jan 2015 (Local Time) from KFSW Reporting Station
Light Snow Light Snow  
Wind Chill: 19°   Ceiling: 2200
Heat Index: 28°   Visibility: 1.5mi
Dew Point: 27°   Wind: 10mph
Humidity: 93%   Direction: 190°S
Pressure: 29.95"   Gusts: NA
Location:  40.6822°N, 91.6042°W
Report Text: KFSW 261435Z AUTO 19009KT 1 1/2SM -SN SCT014 OVC022 M02/M03 A2995 RMK AO2
Loading
Personal Weather Stations






























Interactive Weather Map New forecast layout! Learn more

10-Day Weather Forecast

Advertisements
Track Severe Weather on mobile